Time;durP1;ratioP1;P1;durP2;ratioP2;P2;SDS_P1;SDS_P2;PMS_P1;PMS_P2;Temp;Humidity;BMP_temperature;BMP_pressure;BME280_temperature;BME280_humidity;BME280_pressure;Samples;Min_cycle;Max_cycle;Signal;HPM_P1;HPM_P2
2023/04/12 00:00:04;;;;;;;7.00;4.40;;;;;;;8.58;91.96;99980.97;107679;1253;107473;-63
2023/04/12 00:02:53;;;;;;;7.60;4.50;;;;;;;8.61;91.90;99980.38;107662;1251;97821;-63
2023/04/12 00:05:25;;;;;;;9.10;4.10;;;;;;;8.64;91.82;99976.33;107667;1253;98331;-63
2023/04/12 00:07:54;;;;;;;9.30;4.90;;;;;;;8.68;91.76;99974.71;107675;1249;111773;-64
2023/04/12 00:10:23;;;;;;;6.00;4.30;;;;;;;8.71;91.81;99972.43;107671;1249;109167;-64
2023/04/12 00:12:52;;;;;;;10.20;4.30;;;;;;;8.75;91.64;99965.25;107638;1253;108608;-64
2023/04/12 00:15:20;;;;;;;13.00;4.60;;;;;;;8.75;91.19;99962.23;107897;1248;97691;-64
2023/04/12 00:17:49;;;;;;;7.00;4.20;;;;;;;8.74;90.98;99961.97;107925;1248;98419;-65
2023/04/12 00:20:20;;;;;;;8.20;4.60;;;;;;;8.73;90.89;99955.06;107687;1250;111403;-65
2023/04/12 00:22:48;;;;;;;7.80;4.00;;;;;;;8.73;90.89;99959.38;107687;1250;110103;-64
2023/04/12 00:25:17;;;;;;;8.40;4.50;;;;;;;8.73;90.94;99955.28;107806;1248;108579;-64
2023/04/12 00:27:45;;;;;;;6.90;4.70;;;;;;;8.73;91.14;99948.13;107921;1248;97812;-64
2023/04/12 00:30:14;;;;;;;10.10;5.70;;;;;;;8.76;91.19;99943.80;107927;1248;97831;-63
2023/04/12 00:32:43;;;;;;;8.20;4.80;;;;;;;8.76;91.16;99939.95;107954;1253;111315;-64
2023/04/12 00:35:12;;;;;;;9.80;4.60;;;;;;;8.76;90.97;99940.89;107739;1253;109147;-63
2023/04/12 00:37:40;;;;;;;8.90;4.70;;;;;;;8.75;90.86;99938.80;107672;1250;108686;-65
2023/04/12 00:40:09;;;;;;;9.60;4.60;;;;;;;8.76;90.95;99941.83;107769;1248;97879;-64
2023/04/12 00:42:38;;;;;;;6.30;4.40;;;;;;;8.75;90.88;99942.95;107768;1248;97773;-65
2023/04/12 00:45:08;;;;;;;8.20;4.80;;;;;;;8.74;90.76;99945.33;107907;1248;112292;-64
2023/04/12 00:47:38;;;;;;;7.80;5.10;;;;;;;8.74;90.56;99948.23;107941;1248;109665;-63
2023/04/12 00:50:08;;;;;;;8.10;5.30;;;;;;;8.76;90.74;99950.34;107642;1248;107671;-63
2023/04/12 00:52:38;;;;;;;10.90;5.30;;;;;;;8.81;90.93;99954.05;107930;1248;97761;-64
2023/04/12 00:55:08;;;;;;;9.20;5.30;;;;;;;8.86;91.00;99949.66;107923;1248;97713;-64
2023/04/12 00:57:39;;;;;;;12.50;6.00;;;;;;;8.87;90.68;99949.16;107756;1248;112269;-66
2023/04/12 01:00:12;;;;;;;9.90;5.00;;;;;;;8.86;90.40;99942.28;107927;1249;110999;-66
2023/04/12 01:02:49;;;;;;;13.20;5.60;;;;;;;8.84;90.23;99941.77;107889;1248;108747;-65
2023/04/12 01:05:22;;;;;;;11.10;5.10;;;;;;;8.81;89.98;99938.16;107779;1251;98298;-65
2023/04/12 01:08:13;;;;;;;9.40;5.50;;;;;;;8.80;90.01;99939.66;107684;1250;98417;-64
2023/04/12 01:11:02;;;;;;;7.30;5.00;;;;;;;8.81;90.21;99939.17;107688;1251;111771;-63
2023/04/12 01:13:43;;;;;;;9.90;5.50;;;;;;;8.81;90.02;99936.70;107595;1250;109760;-64
2023/04/12 01:16:21;;;;;;;15.70;5.50;;;;;;;8.79;90.03;99939.72;107644;1250;107990;-64
2023/04/12 01:18:56;;;;;;;13.40;6.00;;;;;;;8.80;90.08;99939.52;107777;1249;97820;-64
2023/04/12 01:21:44;;;;;;;8.40;5.00;;;;;;;8.80;90.11;99935.92;107574;1250;97823;-63
2023/04/12 01:24:22;;;;;;;16.10;5.50;;;;;;;8.77;89.97;99933.60;107560;1250;112275;-64
2023/04/12 01:26:59;;;;;;;7.70;5.20;;;;;;;8.79;90.14;99931.67;107646;1250;109540;-65
2023/04/12 01:29:30;;;;;;;11.20;4.80;;;;;;;8.79;90.38;99929.02;107626;1251;108648;-63
2023/04/12 01:32:00;;;;;;;7.50;4.90;;;;;;;8.75;90.28;99925.75;107798;1250;97878;-66
2023/04/12 01:34:32;;;;;;;10.80;5.60;;;;;;;8.72;90.27;99924.81;107648;1250;97688;-64
2023/04/12 01:37:02;;;;;;;7.70;4.60;;;;;;;8.71;90.27;99923.45;107750;1250;112294;-64
2023/04/12 01:39:33;;;;;;;9.70;5.30;;;;;;;8.72;90.38;99921.45;107685;1250;109200;-64
2023/04/12 01:42:02;;;;;;;9.20;5.40;;;;;;;8.72;90.51;99921.64;107683;1250;108241;-63
2023/04/12 01:44:34;;;;;;;14.10;5.70;;;;;;;8.72;90.50;99919.31;107651;1251;97821;-64
2023/04/12 01:47:12;;;;;;;9.70;5.20;;;;;;;8.73;90.57;99920.96;107697;1253;97902;-64
2023/04/12 01:50:22;;;;;;;6.50;4.50;;;;;;;8.75;90.79;99919.15;107575;1250;112652;-64
2023/04/12 01:53:19;;;;;;;10.30;5.20;;;;;;;8.73;90.38;99917.23;107716;1250;109508;-64
2023/04/12 01:55:51;;;;;;;15.50;6.30;;;;;;;8.74;90.54;99923.02;107517;1251;107272;-63
2023/04/12 01:58:21;;;;;;;10.80;5.20;;;;;;;8.72;90.40;99915.16;107501;1256;98005;-64
2023/04/12 02:01:00;;;;;;;7.20;5.80;;;;;;;8.69;90.21;99908.11;107663;1249;97932;-64
2023/04/12 02:03:30;;;;;;;9.30;5.90;;;;;;;8.69;90.44;99905.98;107684;1250;110682;-64
2023/04/12 02:06:01;;;;;;;9.80;6.00;;;;;;;8.72;90.67;99908.23;107684;1250;109213;-64
2023/04/12 02:08:29;;;;;;;11.80;6.00;;;;;;;8.70;90.65;99904.29;107721;1250;108552;-64
2023/04/12 02:10:58;;;;;;;11.60;5.70;;;;;;;8.70;90.77;99903.41;107651;1256;97819;-65
2023/04/12 02:13:27;;;;;;;11.50;5.90;;;;;;;8.69;90.60;99902.27;107599;1249;98333;-65
2023/04/12 02:15:58;;;;;;;14.60;6.00;;;;;;;8.66;90.89;99898.52;107655;1251;112318;-65
2023/04/12 02:18:26;;;;;;;9.50;5.60;;;;;;;8.66;90.97;99896.11;107641;1251;110173;-64
2023/04/12 02:21:06;;;;;;;14.00;5.90;;;;;;;8.64;90.88;99895.40;107617;1250;108597;-64
2023/04/12 02:23:35;;;;;;;9.90;5.60;;;;;;;8.64;91.01;99895.90;107540;1250;97825;-64
2023/04/12 02:26:03;;;;;;;8.80;5.50;;;;;;;8.65;91.24;99893.48;107789;1250;97723;-64
2023/04/12 02:28:33;;;;;;;12.60;6.80;;;;;;;8.62;91.08;99893.39;107911;1252;111400;-64
2023/04/12 02:31:03;;;;;;;7.80;5.90;;;;;;;8.62;91.29;99892.32;107906;1248;109774;-66
2023/04/12 02:33:33;;;;;;;11.60;6.00;;;;;;;8.64;91.45;99891.46;107892;1249;108146;-64
2023/04/12 02:36:03;;;;;;;11.50;6.10;;;;;;;8.63;91.37;99890.27;107749;1251;98332;-64
2023/04/12 02:38:31;;;;;;;17.40;7.20;;;;;;;8.63;91.41;99888.48;107735;1250;97937;-63
2023/04/12 02:41:02;;;;;;;13.90;6.90;;;;;;;8.63;91.19;99884.77;107816;1248;111783;-65
2023/04/12 02:43:32;;;;;;;16.20;7.60;;;;;;;8.64;91.20;99883.98;107735;1248;108594;-64
2023/04/12 02:46:07;;;;;;;12.10;6.60;;;;;;;8.63;91.16;99878.64;107866;1248;108828;-63
2023/04/12 02:48:41;;;;;;;15.70;8.00;;;;;;;8.60;91.07;99874.64;107881;1248;98014;-64
2023/04/12 02:51:19;;;;;;;16.80;7.60;;;;;;;8.57;91.02;99878.49;107958;1248;97700;-64
2023/04/12 02:53:50;;;;;;;9.10;6.30;;;;;;;8.56;91.42;99876.41;107933;1248;111272;-64
2023/04/12 02:56:23;;;;;;;13.90;7.20;;;;;;;8.59;91.49;99875.11;107695;1250;108413;-65
2023/04/12 02:58:58;;;;;;;14.90;7.40;;;;;;;8.62;91.66;99873.05;107598;1251;107975;-64
2023/04/12 03:01:45;;;;;;;12.40;7.40;;;;;;;8.67;91.70;99876.73;107800;1248;98267;-63
2023/04/12 03:04:28;;;;;;;6.80;5.00;;;;;;;8.70;91.74;99875.80;107885;1248;97717;-64
2023/04/12 03:06:59;;;;;;;8.60;5.60;;;;;;;8.72;91.36;99874.90;107712;1248;111958;-63
2023/04/12 03:09:37;;;;;;;18.20;5.80;;;;;;;8.70;91.23;99870.81;107879;1248;109816;-64
2023/04/12 03:12:07;;;;;;;12.40;5.80;;;;;;;8.69;91.08;99872.37;107679;1251;107454;-64
2023/04/12 03:14:39;;;;;;;10.30;6.10;;;;;;;8.66;91.18;99873.70;107620;1250;97857;-64
2023/04/12 03:17:09;;;;;;;10.20;5.70;;;;;;;8.66;91.24;99874.27;107767;1251;97783;-66
2023/04/12 03:19:39;;;;;;;8.80;6.10;;;;;;;8.65;91.21;99877.06;107670;1254;111930;-64
2023/04/12 03:22:07;;;;;;;8.70;5.90;;;;;;;8.61;91.53;99872.09;107693;1250;109715;-64
2023/04/12 03:24:38;;;;;;;12.50;7.30;;;;;;;8.61;91.65;99871.73;107658;1255;108219;-64
2023/04/12 03:27:07;;;;;;;10.40;5.80;;;;;;;8.59;91.84;99870.59;107745;1248;97808;-63
2023/04/12 03:29:36;;;;;;;14.80;6.30;;;;;;;8.58;91.95;99870.88;107961;1248;97793;-63
2023/04/12 03:32:05;;;;;;;11.50;7.00;;;;;;;8.56;92.08;99872.39;107953;1248;112259;-64
2023/04/12 03:34:34;;;;;;;10.20;6.30;;;;;;;8.54;91.98;99870.91;107801;1248;109907;-65
2023/04/12 03:37:10;;;;;;;10.00;6.20;;;;;;;8.55;92.09;99869.03;107924;1248;108304;-63
2023/04/12 03:39:46;;;;;;;10.50;6.40;;;;;;;8.54;92.12;99867.00;107898;1248;97909;-65
2023/04/12 03:42:20;;;;;;;13.70;6.90;;;;;;;8.56;92.07;99870.24;107662;1253;98245;-64
2023/04/12 03:45:09;;;;;;;18.00;7.40;;;;;;;8.60;92.42;99873.24;107638;1251;112056;-65
2023/04/12 03:47:40;;;;;;;20.40;6.40;;;;;;;8.60;92.08;99884.68;107682;1248;109916;-65
2023/04/12 03:50:10;;;;;;;13.60;6.00;;;;;;;8.63;92.16;99887.29;107926;1248;107801;-65
2023/04/12 03:52:44;;;;;;;14.80;6.50;;;;;;;8.64;91.95;99888.73;107921;1249;97919;-64
2023/04/12 03:55:16;;;;;;;10.60;7.40;;;;;;;8.64;91.85;99888.53;107736;1250;98334;-64
2023/04/12 03:57:47;;;;;;;12.20;6.70;;;;;;;8.64;91.78;99890.03;107753;1250;110631;-63
2023/04/12 04:00:17;;;;;;;17.00;6.50;;;;;;;8.66;91.94;99882.82;107889;1251;109108;-63
2023/04/12 04:02:46;;;;;;;21.70;8.20;;;;;;;8.69;91.91;99882.42;107524;1250;108586;-64
2023/04/12 04:05:16;;;;;;;22.70;9.70;;;;;;;8.68;91.78;99880.54;107701;1251;97706;-63
2023/04/12 04:07:47;;;;;;;11.60;7.90;;;;;;;8.69;92.02;99883.06;107902;1249;98824;-64
2023/04/12 04:10:16;;;;;;;18.80;8.30;;;;;;;8.71;91.94;99883.59;107896;1251;112688;-62
2023/04/12 04:12:45;;;;;;;14.50;8.60;;;;;;;8.75;91.87;99884.95;107654;1250;110573;-63
2023/04/12 04:15:14;;;;;;;15.20;8.40;;;;;;;8.80;91.84;99886.90;107678;1250;108934;-63
2023/04/12 04:17:43;;;;;;;20.40;8.20;;;;;;;8.81;91.55;99885.38;107596;1250;97828;-63
2023/04/12 04:20:13;;;;;;;20.00;10.60;;;;;;;8.83;91.51;99886.62;107627;1250;97732;-64
2023/04/12 04:22:44;;;;;;;18.80;9.70;;;;;;;8.83;91.34;99891.23;107700;1250;111364;-64
2023/04/12 04:25:14;;;;;;;24.70;9.50;;;;;;;8.86;91.44;99893.45;107739;1250;110070;-63
2023/04/12 04:27:49;;;;;;;22.30;10.80;;;;;;;8.86;91.26;99900.41;107657;1250;108584;-64
2023/04/12 04:30:21;;;;;;;18.00;9.60;;;;;;;8.87;91.20;99902.86;107667;1250;97870;-64
2023/04/12 04:32:50;;;;;;;14.50;8.70;;;;;;;8.91;91.35;99904.99;107756;1250;97821;-65
2023/04/12 04:35:22;;;;;;;16.20;8.50;;;;;;;8.96;91.60;99909.89;107646;1250;111335;-65
2023/04/12 04:38:11;;;;;;;14.50;7.60;;;;;;;8.94;91.02;99908.59;107610;1250;110035;-63
2023/04/12 04:40:40;;;;;;;19.70;7.70;;;;;;;8.92;90.75;99906.11;107618;1251;108097;-64
2023/04/12 04:43:12;;;;;;;18.70;11.80;;;;;;;8.92;90.74;99907.95;107620;1251;97834;-64
2023/04/12 04:45:45;;;;;;;17.70;9.40;;;;;;;8.90;90.69;99908.69;107624;1251;97645;-64
2023/04/12 04:48:15;;;;;;;18.30;9.90;;;;;;;8.91;90.79;99908.35;107708;1251;112931;-64
2023/04/12 04:50:43;;;;;;;17.70;9.30;;;;;;;8.89;90.39;99910.50;107759;1249;110029;-64
2023/04/12 04:53:12;;;;;;;25.00;9.00;;;;;;;8.89;90.61;99916.96;107605;1251;108190;-64
2023/04/12 04:55:41;;;;;;;17.60;8.70;;;;;;;8.91;90.79;99917.64;107635;1251;97823;-63
2023/04/12 04:58:10;;;;;;;17.50;8.90;;;;;;;8.97;91.19;99922.30;107727;1251;98336;-63
2023/04/12 05:00:39;;;;;;;15.50;8.00;;;;;;;9.01;91.07;99922.82;107747;1255;111813;-64
2023/04/12 05:03:10;;;;;;;18.30;8.20;;;;;;;9.01;90.73;99919.61;107746;1250;108779;-62
2023/04/12 05:05:38;;;;;;;16.40;8.40;;;;;;;9.04;90.96;99920.56;107691;1255;107955;-64
2023/04/12 05:08:09;;;;;;;18.90;7.30;;;;;;;9.06;90.64;99917.86;107703;1250;98040;-64
2023/04/12 05:10:38;;;;;;;15.60;7.40;;;;;;;9.07;90.64;99919.71;107657;1251;97681;-63
2023/04/12 05:13:08;;;;;;;22.10;8.20;;;;;;;9.07;90.54;99918.44;107769;1251;112110;-63
2023/04/12 05:15:39;;;;;;;21.80;9.00;;;;;;;9.09;90.62;99920.63;107642;1251;111124;-64
2023/04/12 05:18:08;;;;;;;20.90;8.80;;;;;;;9.09;90.59;99920.96;107769;1252;107223;-64
2023/04/12 05:20:40;;;;;;;21.30;8.60;;;;;;;9.11;90.47;99920.95;107645;1251;98004;-64
2023/04/12 05:23:11;;;;;;;20.00;9.00;;;;;;;9.12;90.69;99919.42;107669;1251;98360;-63
2023/04/12 05:25:48;;;;;;;22.30;10.30;;;;;;;9.13;90.90;99909.33;107719;1251;112141;-63
2023/04/12 05:28:18;;;;;;;18.10;8.20;;;;;;;9.18;90.69;99912.79;107686;1250;109613;-65
2023/04/12 05:30:50;;;;;;;17.70;9.40;;;;;;;9.18;90.17;99910.83;107492;1250;108020;-65
2023/04/12 05:33:21;;;;;;;20.80;8.60;;;;;;;9.15;89.83;99907.31;107541;1253;97813;-63
2023/04/12 05:35:52;;;;;;;20.80;8.90;;;;;;;9.10;89.48;99903.23;107722;1250;97785;-64
2023/04/12 05:38:21;;;;;;;17.80;9.70;;;;;;;9.09;89.76;99900.64;107935;1251;112952;-64
2023/04/12 05:40:53;;;;;;;16.20;9.30;;;;;;;9.11;89.98;99904.34;107752;1251;110174;-64
2023/04/12 05:43:23;;;;;;;27.80;10.90;;;;;;;9.12;89.96;99906.06;107551;1253;106725;-63
2023/04/12 05:45:52;;;;;;;21.20;11.70;;;;;;;9.15;90.21;99902.55;107530;1253;97914;-64
2023/04/12 05:48:22;;;;;;;30.30;10.90;;;;;;;9.13;90.04;99905.06;107618;1253;98508;-64
2023/04/12 05:50:52;;;;;;;15.70;9.70;;;;;;;9.11;89.94;99909.19;107599;1252;111889;-63
2023/04/12 05:53:22;;;;;;;18.50;10.80;;;;;;;9.05;89.59;99907.40;107604;1255;109249;-66
2023/04/12 05:55:53;;;;;;;28.00;11.10;;;;;;;9.02;89.84;99904.65;107520;1251;107559;-63
2023/04/12 05:58:22;;;;;;;27.70;11.80;;;;;;;9.03;89.80;99909.01;107713;1254;97926;-63
2023/04/12 06:00:54;;;;;;;25.10;10.50;;;;;;;9.04;89.82;99905.73;107530;1251;97692;-64
2023/04/12 06:03:23;;;;;;;24.30;10.10;;;;;;;9.03;89.91;99907.42;107733;1256;111931;-64
2023/04/12 06:05:53;;;;;;;18.70;10.20;;;;;;;9.01;89.95;99904.71;107648;1253;109455;-64
2023/04/12 06:08:22;;;;;;;27.50;10.10;;;;;;;9.04;90.38;99901.80;107535;1251;107558;-63
2023/04/12 06:10:54;;;;;;;27.40;11.20;;;;;;;9.00;90.47;99898.43;107517;1255;97794;-63
2023/04/12 06:13:23;;;;;;;19.00;9.50;;;;;;;8.92;90.59;99895.95;107753;1251;97777;-66
2023/04/12 06:15:53;;;;;;;20.10;11.50;;;;;;;8.89;90.98;99892.48;107699;1251;112274;-65
2023/04/12 06:18:24;;;;;;;20.60;10.70;;;;;;;8.92;91.19;99894.16;107716;1251;108787;-64
2023/04/12 06:20:53;;;;;;;26.10;9.80;;;;;;;9.02;91.40;99897.46;107549;1254;108805;-64
2023/04/12 06:23:24;;;;;;;21.80;10.70;;;;;;;9.07;91.59;99889.36;107621;1251;97838;-64
2023/04/12 06:25:56;;;;;;;26.10;10.10;;;;;;;9.09;91.27;99882.15;107767;1254;97824;-64
2023/04/12 06:28:25;;;;;;;29.00;10.90;;;;;;;9.18;91.54;99886.45;107610;1250;112352;-63
2023/04/12 06:30:54;;;;;;;17.70;10.20;;;;;;;9.22;91.25;99881.84;107647;1253;109081;-64
2023/04/12 06:33:23;;;;;;;21.60;9.70;;;;;;;9.28;91.12;99882.50;107716;1257;106947;-64
2023/04/12 06:35:55;;;;;;;19.10;9.30;;;;;;;9.38;91.29;99882.36;107580;1250;97813;-64
2023/04/12 06:38:24;;;;;;;20.40;10.60;;;;;;;9.49;91.09;99886.37;107643;1251;97816;-64
2023/04/12 06:40:52;;;;;;;18.90;9.50;;;;;;;9.58;90.82;99894.12;107646;1250;111736;-64
2023/04/12 06:43:21;;;;;;;21.00;10.50;;;;;;;9.59;90.24;99901.82;107645;1252;109687;-64
2023/04/12 06:45:50;;;;;;;24.00;13.00;;;;;;;9.62;90.18;99906.25;107629;1251;107720;-64
2023/04/12 06:48:18;;;;;;;26.20;11.90;;;;;;;9.69;90.47;99901.76;107616;1250;97889;-64
2023/04/12 06:50:47;;;;;;;22.10;8.80;;;;;;;9.78;90.32;99906.05;107638;1251;98343;-63
2023/04/12 06:53:16;;;;;;;14.90;8.10;;;;;;;9.77;89.69;99905.77;107633;1253;111714;-63
2023/04/12 06:55:44;;;;;;;14.30;8.20;;;;;;;9.74;89.46;99909.16;107639;1251;109692;-63
2023/04/12 06:58:12;;;;;;;15.80;8.50;;;;;;;9.72;89.30;99911.16;107765;1251;108171;-64
2023/04/12 07:00:41;;;;;;;17.60;8.80;;;;;;;9.70;89.45;99905.93;107539;1252;97810;-63
2023/04/12 07:03:10;;;;;;;19.20;9.30;;;;;;;9.77;89.91;99904.89;107592;1254;97909;-65
2023/04/12 07:05:39;;;;;;;18.70;9.40;;;;;;;9.84;89.74;99906.77;107569;1251;111159;-63
2023/04/12 07:08:08;;;;;;;21.90;9.20;;;;;;;9.83;88.91;99907.39;107633;1251;109657;-63
2023/04/12 07:10:36;;;;;;;23.40;10.50;;;;;;;9.80;88.84;99906.09;107600;1251;108272;-64
2023/04/12 07:13:07;;;;;;;22.20;10.40;;;;;;;9.77;88.69;99905.69;107690;1251;97334;-63
2023/04/12 07:15:36;;;;;;;20.50;9.70;;;;;;;9.75;88.78;99899.02;107546;1253;98341;-63
2023/04/12 07:18:04;;;;;;;20.00;10.00;;;;;;;9.73;88.77;99902.66;107573;1251;112224;-63
2023/04/12 07:20:33;;;;;;;20.50;9.60;;;;;;;9.75;88.76;99903.32;107572;1253;109728;-64
2023/04/12 07:23:02;;;;;;;26.50;9.30;;;;;;;9.81;89.03;99904.90;107528;1253;108579;-63
2023/04/12 07:25:31;;;;;;;23.20;9.30;;;;;;;9.86;88.67;99899.57;107693;1256;97841;-63
2023/04/12 07:27:59;;;;;;;19.40;9.60;;;;;;;9.90;88.72;99900.24;107609;1253;97772;-64
2023/04/12 07:30:28;;;;;;;21.50;9.80;;;;;;;9.94;88.60;99896.99;107546;1252;111868;-64
2023/04/12 07:32:56;;;;;;;21.50;9.40;;;;;;;9.96;88.35;99895.64;107588;1251;109522;-64
2023/04/12 07:35:43;;;;;;;24.10;9.90;;;;;;;9.98;88.24;99893.14;107637;1249;108151;-63
2023/04/12 07:38:12;;;;;;;25.60;10.70;;;;;;;10.00;88.26;99892.78;107594;1251;97831;-65
2023/04/12 07:40:46;;;;;;;17.00;10.00;;;;;;;10.04;88.20;99893.15;107634;1251;97727;-64
2023/04/12 07:43:17;;;;;;;21.30;10.10;;;;;;;10.10;88.25;99889.64;107646;1251;112813;-63
2023/04/12 07:45:46;;;;;;;20.60;10.10;;;;;;;10.11;88.01;99893.64;107552;1253;110449;-64
2023/04/12 07:48:15;;;;;;;21.00;10.00;;;;;;;10.12;87.88;99893.60;107571;1253;107684;-64
2023/04/12 07:50:43;;;;;;;20.40;11.00;;;;;;;10.14;87.67;99896.23;107695;1252;97922;-63
2023/04/12 07:53:26;;;;;;;22.30;9.90;;;;;;;10.16;87.73;99894.75;107545;1251;98527;-65
2023/04/12 07:55:55;;;;;;;15.20;10.00;;;;;;;10.17;87.40;99894.15;107662;1251;111597;-67
2023/04/12 07:58:24;;;;;;;14.90;9.20;;;;;;;10.17;87.10;99891.13;107600;1253;108850;-64
2023/04/12 08:00:53;;;;;;;16.40;9.40;;;;;;;10.18;87.16;99889.38;106863;1251;917997;-63
2023/04/12 08:03:22;;;;;;;23.00;10.90;;;;;;;10.26;87.15;99888.23;107793;1250;98253;-63
2023/04/12 08:05:54;;;;;;;16.60;8.80;;;;;;;10.34;86.56;99895.49;107691;1254;98397;-64
2023/04/12 08:08:23;;;;;;;17.10;9.20;;;;;;;10.42;86.77;99895.22;107805;1253;111647;-65
2023/04/12 08:10:51;;;;;;;15.60;9.40;;;;;;;10.54;86.61;99889.85;107679;1251;109587;-65
2023/04/12 08:13:24;;;;;;;19.50;9.50;;;;;;;10.72;86.53;99888.01;107737;1251;108691;-64
2023/04/12 08:15:53;;;;;;;15.10;8.70;;;;;;;10.89;86.18;99891.52;107948;1251;97800;-63
2023/04/12 08:18:21;;;;;;;15.50;9.40;;;;;;;10.99;85.24;99896.57;107581;1253;99003;-64
2023/04/12 08:20:50;;;;;;;16.30;9.10;;;;;;;11.02;85.08;99891.47;107537;1251;112366;-64
2023/04/12 08:23:19;;;;;;;13.70;8.00;;;;;;;11.02;84.25;99888.00;107597;1251;109530;-64
2023/04/12 08:25:48;;;;;;;16.40;8.60;;;;;;;11.01;83.73;99886.11;107665;1250;108592;-64
2023/04/12 08:28:16;;;;;;;22.00;8.30;;;;;;;10.99;83.70;99891.75;107609;1251;97723;-65
2023/04/12 08:30:44;;;;;;;17.00;9.40;;;;;;;10.99;83.84;99890.10;107766;1251;97930;-64
2023/04/12 08:33:13;;;;;;;16.60;8.10;;;;;;;11.00;83.63;99890.77;107662;1251;111725;-63
2023/04/12 08:35:41;;;;;;;19.80;8.20;;;;;;;10.97;83.75;99889.42;107762;1251;109176;-63
2023/04/12 08:38:10;;;;;;;15.50;7.60;;;;;;;10.95;83.38;99890.19;107628;1251;108241;-63
2023/04/12 08:40:42;;;;;;;16.30;8.00;;;;;;;10.89;83.13;99889.11;107644;1251;97809;-63
2023/04/12 08:43:11;;;;;;;20.40;7.80;;;;;;;10.91;83.09;99888.27;107728;1251;97770;-64
2023/04/12 08:45:40;;;;;;;15.10;7.50;;;;;;;11.01;83.50;99889.41;107675;1250;112288;-64
2023/04/12 08:48:09;;;;;;;19.60;8.00;;;;;;;11.13;83.16;99889.94;107782;1250;111015;-66
2023/04/12 08:50:40;;;;;;;14.90;8.50;;;;;;;11.22;82.63;99896.14;107595;1250;108230;-64
2023/04/12 08:53:10;;;;;;;14.70;7.80;;;;;;;11.29;82.61;99897.20;107596;1251;97825;-64
2023/04/12 08:55:38;;;;;;;15.20;7.90;;;;;;;11.31;82.42;99898.45;107656;1251;98325;-62
2023/04/12 08:58:08;;;;;;;9.40;6.70;;;;;;;11.30;81.88;99898.95;107755;1251;111923;-66
2023/04/12 09:00:37;;;;;;;17.10;7.50;;;;;;;11.25;81.69;99898.54;107962;1251;109031;-64
2023/04/12 09:03:06;;;;;;;19.20;7.20;;;;;;;11.23;81.67;99891.70;107886;1251;108222;-65
2023/04/12 09:05:35;;;;;;;13.90;7.00;;;;;;;11.20;81.32;99897.80;107954;1250;97809;-65
2023/04/12 09:08:04;;;;;;;15.20;7.10;;;;;;;11.18;81.11;99901.40;107672;1251;97726;-63
2023/04/12 09:10:37;;;;;;;11.80;7.50;;;;;;;11.11;81.12;99904.84;107968;1251;111869;-64
2023/04/12 09:13:06;;;;;;;15.60;7.50;;;;;;;11.11;81.36;99902.15;107717;1251;109686;-64
2023/04/12 09:15:35;;;;;;;17.20;7.00;;;;;;;11.16;81.20;99895.73;107644;1251;108411;-64
2023/04/12 09:18:12;;;;;;;11.30;7.40;;;;;;;11.17;81.25;99894.16;107775;1251;97807;-63
2023/04/12 09:20:45;;;;;;;12.50;7.50;;;;;;;11.20;81.19;99902.69;107820;1250;98305;-64
2023/04/12 09:23:19;;;;;;;13.20;7.80;;;;;;;11.19;81.34;99920.02;107789;1251;111862;-64
2023/04/12 09:25:50;;;;;;;12.50;6.10;;;;;;;11.19;81.42;99925.44;107680;1250;110146;-64
2023/04/12 09:28:27;;;;;;;13.90;6.50;;;;;;;11.18;81.36;99922.05;107666;1251;108516;-64
2023/04/12 09:30:57;;;;;;;15.40;6.70;;;;;;;11.19;81.39;99918.73;107674;1251;97717;-64
2023/04/12 09:33:37;;;;;;;11.70;6.70;;;;;;;11.18;81.44;99917.71;107714;1250;97783;-64
2023/04/12 09:36:13;;;;;;;11.60;6.90;;;;;;;11.22;81.52;99919.45;107719;1251;112262;-65
2023/04/12 09:38:58;;;;;;;10.80;6.50;;;;;;;11.25;81.49;99905.34;107653;1251;109042;-65
2023/04/12 09:41:29;;;;;;;12.80;6.60;;;;;;;11.29;81.15;99903.48;107638;1251;108743;-64
2023/04/12 09:44:01;;;;;;;11.00;7.00;;;;;;;11.30;81.06;99905.52;107668;1251;97963;-64
2023/04/12 09:46:30;;;;;;;14.70;7.30;;;;;;;11.34;81.39;99908.40;107610;1251;97767;-65
2023/04/12 09:49:01;;;;;;;11.30;7.10;;;;;;;11.45;81.59;99906.62;107692;1251;111793;-65
2023/04/12 09:51:32;;;;;;;10.30;6.90;;;;;;;11.49;79.91;99907.17;107760;1251;109110;-63
2023/04/12 09:54:05;;;;;;;10.60;6.40;;;;;;;11.44;79.96;99903.38;107681;1253;108050;-64
2023/04/12 09:56:36;;;;;;;12.70;7.80;;;;;;;11.52;80.21;99898.42;107717;1250;97899;-64
2023/04/12 09:59:06;;;;;;;17.60;7.20;;;;;;;11.58;79.95;99899.01;107695;1251;97812;-64
2023/04/12 10:01:38;;;;;;;17.10;7.20;;;;;;;11.64;79.92;99892.30;107695;1251;112374;-64
2023/04/12 10:04:08;;;;;;;13.60;7.80;;;;;;;11.71;79.69;99890.21;107704;1250;109303;-65
2023/04/12 10:06:38;;;;;;;14.10;8.00;;;;;;;11.80;79.41;99883.38;107759;1251;108447;-64
2023/04/12 10:09:07;;;;;;;14.00;7.70;;;;;;;11.89;78.96;99882.20;107650;1251;97854;-64
2023/04/12 10:11:39;;;;;;;12.10;7.10;;;;;;;11.94;78.69;99887.46;107688;1251;98392;-62
2023/04/12 10:14:08;;;;;;;13.40;7.10;;;;;;;12.00;78.33;99894.17;107800;1250;112603;-64
2023/04/12 10:16:40;;;;;;;14.50;7.30;;;;;;;12.03;77.94;99894.61;107598;1250;110868;-63
2023/04/12 10:19:11;;;;;;;12.80;6.40;;;;;;;12.04;77.85;99896.23;107637;1250;108644;-64
2023/04/12 10:21:39;;;;;;;9.60;6.50;;;;;;;12.01;77.84;99897.31;107642;1251;97839;-63
2023/04/12 10:24:08;;;;;;;14.40;6.60;;;;;;;11.97;77.38;99896.85;107794;1251;97780;-63
2023/04/12 10:26:42;;;;;;;14.00;6.80;;;;;;;11.89;77.62;99899.61;107779;1251;110945;-63
2023/04/12 10:29:28;;;;;;;8.40;5.90;;;;;;;11.83;77.57;99898.13;107841;1251;108786;-65
2023/04/12 10:32:18;;;;;;;11.20;6.80;;;;;;;11.78;77.60;99902.09;107890;1253;108249;-64
2023/04/12 10:34:52;;;;;;;10.00;6.50;;;;;;;11.77;77.62;99901.34;107670;1250;98017;-63
2023/04/12 10:37:21;;;;;;;10.80;6.50;;;;;;;11.76;77.33;99903.23;107608;1255;97920;-64
2023/04/12 10:39:54;;;;;;;12.80;7.70;;;;;;;11.72;77.13;99906.15;107657;1251;112156;-64
2023/04/12 10:42:24;;;;;;;10.40;7.00;;;;;;;11.70;77.29;99904.88;107656;1249;110102;-64
2023/04/12 10:45:30;;;;;;;9.10;6.40;;;;;;;11.72;77.04;99902.70;107685;1250;108474;-65
2023/04/12 10:48:00;;;;;;;12.70;6.80;;;;;;;11.77;77.01;99907.38;107662;1251;97707;-65
2023/04/12 10:50:31;;;;;;;11.20;7.10;;;;;;;11.79;76.45;99902.11;107736;1250;98436;-65
2023/04/12 10:53:23;;;;;;;8.90;6.20;;;;;;;11.85;76.82;99904.63;107719;1249;111230;-66
2023/04/12 10:55:52;;;;;;;11.20;6.40;;;;;;;11.96;76.82;99904.63;107717;1250;109931;-64
2023/04/12 10:58:48;;;;;;;10.70;6.80;;;;;;;12.00;75.91;99900.33;107707;1253;108061;-64
2023/04/12 11:01:20;;;;;;;13.10;6.50;;;;;;;11.98;76.12;99909.19;107674;1251;97698;-63
2023/04/12 11:04:12;;;;;;;11.30;7.40;;;;;;;11.97;76.13;99909.64;107738;1251;97850;-64
2023/04/12 11:06:58;;;;;;;15.10;8.40;;;;;;;11.95;75.85;99915.93;107696;1251;112341;-63
2023/04/12 11:09:42;;;;;;;11.70;7.30;;;;;;;11.89;76.01;99918.89;107682;1250;109490;-66
2023/04/12 11:12:27;;;;;;;15.30;8.20;;;;;;;11.85;76.41;99918.38;107643;1251;108559;-65
2023/04/12 11:15:00;;;;;;;16.30;8.20;;;;;;;11.85;76.63;99923.23;107692;1249;97918;-64
2023/04/12 11:17:37;;;;;;;22.10;8.70;;;;;;;11.84;76.27;99924.27;107670;1251;97724;-62
2023/04/12 11:20:11;;;;;;;13.80;8.00;;;;;;;11.79;75.63;99926.44;107605;1251;111389;-64
2023/04/12 11:22:40;;;;;;;12.60;7.40;;;;;;;11.68;75.84;99929.95;107703;1251;108401;-63
2023/04/12 11:25:16;;;;;;;16.10;7.10;;;;;;;11.61;76.16;99931.55;107723;1249;108353;-64
2023/04/12 11:27:53;;;;;;;12.60;7.30;;;;;;;11.59;76.59;99932.45;107676;1250;98445;-64
2023/04/12 11:30:25;;;;;;;10.20;6.80;;;;;;;11.58;76.72;99933.86;107732;1251;97708;-64
2023/04/12 11:32:54;;;;;;;9.90;6.60;;;;;;;11.54;76.42;99933.52;107664;1250;110386;-63
2023/04/12 11:35:26;;;;;;;13.10;6.80;;;;;;;11.48;76.66;99930.59;107727;1251;107762;-63
2023/04/12 11:37:56;;;;;;;12.30;6.90;;;;;;;11.45;76.86;99925.67;107712;1251;108661;-64